createdAt,value
2023-04-28T00:02:12.711Z,101422.00
2023-04-28T00:04:39.856Z,101429.00
2023-04-28T00:07:06.908Z,101423.00
2023-04-28T00:09:33.911Z,101414.00
2023-04-28T00:12:01.724Z,101408.00
2023-04-28T00:14:28.806Z,101389.00
2023-04-28T00:16:58.380Z,101392.00
2023-04-28T00:19:25.822Z,101382.00
2023-04-28T00:21:52.753Z,101384.00
2023-04-28T00:24:19.907Z,101379.00
2023-04-28T00:26:46.788Z,101382.00
2023-04-28T00:29:13.662Z,101370.00
2023-04-28T00:31:40.622Z,101362.00
2023-04-28T00:34:07.633Z,101377.00
2023-04-28T00:36:35.862Z,101376.00
2023-04-28T00:39:02.900Z,101360.00
2023-04-28T00:41:29.878Z,101360.00
2023-04-28T00:43:56.908Z,101352.00
2023-04-28T00:46:27.221Z,101345.00
2023-04-28T00:48:54.296Z,101345.00
2023-04-28T00:51:22.213Z,101327.00
2023-04-28T00:53:49.650Z,101324.00
2023-04-28T00:56:16.722Z,101322.00
2023-04-28T00:58:43.808Z,101318.00
2023-04-28T01:01:10.860Z,101319.00
2023-04-28T01:03:39.722Z,101317.00
2023-04-28T01:06:08.442Z,101319.00
2023-04-28T01:08:37.216Z,101319.00
2023-04-28T01:11:04.289Z,101332.00
2023-04-28T01:13:31.332Z,101315.00
2023-04-28T01:15:58.506Z,101321.00
2023-04-28T01:18:25.805Z,101311.00
2023-04-28T01:20:52.771Z,101317.00
2023-04-28T01:23:19.756Z,101314.00
2023-04-28T01:25:46.704Z,101313.00
2023-04-28T01:28:13.677Z,101317.00
2023-04-28T01:30:40.672Z,101308.00
2023-04-28T01:33:07.741Z,101304.00
2023-04-28T01:35:34.685Z,101306.00
2023-04-28T01:38:01.968Z,101307.00
2023-04-28T01:40:28.888Z,101306.00
2023-04-28T01:42:55.864Z,101300.00
2023-04-28T01:45:22.762Z,101299.00
2023-04-28T01:47:49.748Z,101297.00
2023-04-28T01:50:16.820Z,101289.00
2023-04-28T01:52:43.763Z,101280.00
2023-04-28T01:55:10.751Z,101286.00
2023-04-28T01:57:37.706Z,101281.00
2023-04-28T02:00:05.168Z,101280.00
2023-04-28T02:02:32.299Z,101277.00
2023-04-28T02:04:59.402Z,101270.00
2023-04-28T02:07:26.532Z,101271.00
2023-04-28T02:09:53.522Z,101264.00
2023-04-28T02:12:20.741Z,101268.00
2023-04-28T02:14:47.983Z,101274.00
2023-04-28T02:17:14.915Z,101279.00
2023-04-28T02:19:41.941Z,101278.00
2023-04-28T02:22:08.910Z,101273.00
2023-04-28T02:24:37.203Z,101263.00
2023-04-28T02:27:05.600Z,101262.00
2023-04-28T02:29:32.570Z,101257.00
2023-04-28T02:31:59.576Z,101256.00
2023-04-28T02:34:26.740Z,101251.00
2023-04-28T02:36:53.692Z,101251.00
2023-04-28T02:39:22.485Z,101248.00
2023-04-28T02:41:49.477Z,101243.00
2023-04-28T02:44:16.809Z,101245.00
2023-04-28T02:46:44.063Z,101250.00
2023-04-28T02:49:11.245Z,101235.00
2023-04-28T02:51:38.168Z,101239.00
2023-04-28T02:54:05.152Z,101234.00
2023-04-28T02:56:32.955Z,101230.00
2023-04-28T02:58:59.898Z,101225.00
2023-04-28T03:01:26.969Z,101215.00
2023-04-28T03:03:54.171Z,101215.00
2023-04-28T03:06:21.369Z,101209.00
2023-04-28T03:08:48.329Z,101211.00
2023-04-28T03:11:15.344Z,101207.00
2023-04-28T03:13:42.331Z,101197.00
2023-04-28T03:16:09.353Z,101208.00
2023-04-28T03:18:36.445Z,101191.00
2023-04-28T03:21:03.659Z,101191.00
2023-04-28T03:23:30.724Z,101190.00
2023-04-28T03:25:57.692Z,101186.00
2023-04-28T03:28:24.943Z,101180.00
2023-04-28T03:30:51.970Z,101174.00
2023-04-28T03:33:19.023Z,101171.00
2023-04-28T03:35:46.360Z,101158.00
2023-04-28T03:38:13.324Z,101157.00
2023-04-28T03:40:40.490Z,101150.00
2023-04-28T03:43:07.487Z,101145.00
2023-04-28T03:45:34.487Z,101146.00
2023-04-28T03:48:01.510Z,101146.00
2023-04-28T03:50:28.600Z,101146.00
2023-04-28T03:52:55.777Z,101143.00
2023-04-28T03:55:22.752Z,101142.00
2023-04-28T03:57:49.801Z,101145.00
2023-04-28T04:00:16.908Z,101143.00
2023-04-28T04:02:44.045Z,101137.00
2023-04-28T04:05:11.191Z,101144.00
2023-04-28T04:07:38.355Z,101138.00
2023-04-28T04:10:05.926Z,101140.00
2023-04-28T04:12:32.963Z,101128.00
2023-04-28T04:14:59.879Z,101126.00
2023-04-28T04:17:26.945Z,101122.00
2023-04-28T04:19:53.978Z,101115.00
2023-04-28T04:22:21.073Z,101123.00
2023-04-28T04:24:48.049Z,101127.00
2023-04-28T04:27:15.038Z,101128.00
2023-04-28T04:29:42.482Z,101120.00
2023-04-28T04:32:09.397Z,101125.00
2023-04-28T04:34:36.327Z,101122.00
2023-04-28T04:37:03.354Z,101117.00
2023-04-28T04:39:30.387Z,101099.00
2023-04-28T04:41:57.697Z,101089.00
2023-04-28T04:44:24.663Z,101082.00
2023-04-28T04:46:52.195Z,101082.00
2023-04-28T04:49:19.251Z,101078.00
2023-04-28T04:51:46.182Z,101076.00
2023-04-28T04:54:13.180Z,101080.00
2023-04-28T04:56:40.163Z,101085.00
2023-04-28T04:59:07.294Z,101084.00
2023-04-28T05:01:34.255Z,101086.00
2023-04-28T05:04:01.422Z,101076.00
2023-04-28T05:06:28.552Z,101077.00
2023-04-28T05:08:56.775Z,101077.00
2023-04-28T05:11:23.763Z,101067.00
2023-04-28T05:13:51.344Z,101071.00
2023-04-28T05:16:18.387Z,101057.00
2023-04-28T05:18:45.424Z,101066.00
2023-04-28T05:21:12.506Z,101071.00
2023-04-28T05:23:39.512Z,101062.00
2023-04-28T05:26:06.493Z,101062.00
2023-04-28T05:28:33.426Z,101060.00
2023-04-28T05:31:00.400Z,101052.00
2023-04-28T05:33:27.586Z,101065.00
2023-04-28T05:35:54.848Z,101057.00
2023-04-28T05:38:23.440Z,101062.00
2023-04-28T05:40:50.521Z,101050.00
2023-04-28T05:43:17.633Z,101055.00
2023-04-28T05:45:44.763Z,101053.00
2023-04-28T05:48:11.833Z,101048.00
2023-04-28T05:50:39.252Z,101050.00
2023-04-28T05:53:07.587Z,101054.00
2023-04-28T05:55:36.346Z,101048.00
2023-04-28T05:58:03.808Z,101038.00
2023-04-28T06:00:31.367Z,101056.00
2023-04-28T06:02:58.543Z,101054.00
2023-04-28T06:05:26.287Z,101058.00
2023-04-28T06:07:55.910Z,101062.00
2023-04-28T06:10:23.278Z,101058.00
2023-04-28T06:12:50.373Z,101060.00
2023-04-28T06:15:17.296Z,101071.00
2023-04-28T06:17:44.294Z,101070.00
2023-04-28T06:20:13.759Z,101073.00
2023-04-28T06:22:41.509Z,101069.00
2023-04-28T06:25:09.026Z,101070.00
2023-04-28T06:27:36.036Z,101068.00
2023-04-28T06:30:03.333Z,101060.00
2023-04-28T06:32:30.301Z,101061.00
2023-04-28T06:34:58.506Z,101068.00
2023-04-28T06:37:25.681Z,101066.00
2023-04-28T06:39:52.643Z,101071.00
2023-04-28T06:42:20.417Z,101073.00
2023-04-28T06:44:47.523Z,101069.00
2023-04-28T06:47:14.601Z,101062.00
2023-04-28T06:49:43.939Z,101043.00
2023-04-28T06:52:10.934Z,101013.00
2023-04-28T06:54:38.614Z,101029.00
2023-04-28T06:57:05.645Z,101052.00
2023-04-28T06:59:32.676Z,101040.00
2023-04-28T07:01:59.628Z,101031.00
2023-04-28T07:04:27.312Z,101034.00
2023-04-28T07:06:54.352Z,101019.00
2023-04-28T07:09:21.363Z,101012.00
2023-04-28T07:11:48.319Z,101008.00
2023-04-28T07:14:15.875Z,101010.00
2023-04-28T07:16:43.274Z,101020.00
2023-04-28T07:19:10.397Z,101013.00
2023-04-28T07:21:37.337Z,101020.00
2023-04-28T07:24:04.322Z,101023.00
2023-04-28T07:26:33.618Z,101027.00
2023-04-28T07:29:00.622Z,101028.00
2023-04-28T07:31:27.625Z,101029.00
2023-04-28T07:33:54.947Z,101025.00
2023-04-28T07:36:22.099Z,101032.00
2023-04-28T07:38:49.022Z,101036.00
2023-04-28T07:41:17.325Z,101032.00
2023-04-28T07:43:44.538Z,101030.00
2023-04-28T07:46:12.639Z,101025.00
2023-04-28T07:48:39.694Z,101029.00
2023-04-28T07:51:06.986Z,101031.00
2023-04-28T07:53:34.185Z,101032.00
2023-04-28T07:56:01.209Z,101013.00
2023-04-28T07:58:28.425Z,101018.00
2023-04-28T08:00:55.500Z,101012.00
2023-04-28T08:03:22.761Z,101015.00
2023-04-28T08:05:50.054Z,101030.00
2023-04-28T08:08:17.064Z,101039.00
2023-04-28T08:10:44.068Z,101041.00
2023-04-28T08:13:11.142Z,101041.00
2023-04-28T08:15:38.157Z,101039.00
2023-04-28T08:18:05.270Z,101029.00
2023-04-28T08:20:32.538Z,101034.00
2023-04-28T08:22:59.691Z,101022.00
2023-04-28T08:25:26.890Z,101021.00
2023-04-28T08:27:57.254Z,101013.00
2023-04-28T08:30:24.483Z,101016.00
2023-04-28T08:32:51.697Z,101009.00
2023-04-28T08:35:19.292Z,101015.00
2023-04-28T08:37:47.638Z,101013.00
2023-04-28T08:40:15.050Z,101007.00
2023-04-28T08:42:42.941Z,101010.00
2023-04-28T08:45:13.794Z,101014.00
2023-04-28T08:47:49.511Z,101017.00
2023-04-28T08:50:21.680Z,101010.00
2023-04-28T08:52:48.774Z,101009.00
2023-04-28T08:55:17.167Z,101016.00
2023-04-28T08:57:50.346Z,101012.00
2023-04-28T09:00:17.664Z,101016.00
2023-04-28T09:02:44.761Z,101023.00
2023-04-28T09:05:13.197Z,101014.00
2023-04-28T09:07:41.054Z,101007.00
2023-04-28T09:10:25.655Z,101002.00
2023-04-28T09:12:54.159Z,101005.00
2023-04-28T09:15:33.238Z,101006.00
2023-04-28T09:18:04.915Z,101001.00
2023-04-28T09:20:33.188Z,101001.00
2023-04-28T09:23:20.509Z,100996.00
2023-04-28T09:26:07.576Z,100986.00
2023-04-28T09:28:35.780Z,100985.00
2023-04-28T09:31:03.053Z,100987.00
2023-04-28T09:33:30.123Z,100985.00
2023-04-28T09:35:57.148Z,100975.00
2023-04-28T09:38:24.176Z,100975.00
2023-04-28T09:40:52.435Z,100975.00
2023-04-28T09:43:32.229Z,100966.00
2023-04-28T09:46:03.791Z,100966.00
2023-04-28T09:48:40.776Z,100962.00
2023-04-28T09:51:08.031Z,100965.00
2023-04-28T09:53:35.805Z,100960.00
2023-04-28T09:56:05.050Z,100953.00
2023-04-28T09:58:32.944Z,100948.00
2023-04-28T10:01:00.893Z,100951.00
2023-04-28T10:03:30.238Z,100953.00
2023-04-28T10:05:58.730Z,100950.00
2023-04-28T10:08:27.338Z,100942.00
2023-04-28T10:10:54.779Z,100941.00
2023-04-28T10:13:22.962Z,100955.00
2023-04-28T10:15:51.212Z,100950.00
2023-04-28T10:18:18.814Z,100946.00
2023-04-28T10:20:48.188Z,100945.00
2023-04-28T10:23:33.812Z,100936.00
2023-04-28T10:26:00.857Z,100944.00
2023-04-28T10:28:27.893Z,100938.00
2023-04-28T10:31:14.269Z,100945.00
2023-04-28T10:33:41.906Z,100944.00
2023-04-28T10:36:09.140Z,100951.00
2023-04-28T10:38:36.788Z,100949.00
2023-04-28T10:41:04.453Z,100952.00
2023-04-28T10:43:40.036Z,100946.00
2023-04-28T10:46:11.294Z,100946.00
2023-04-28T10:48:53.075Z,100943.00
2023-04-28T10:51:19.965Z,100940.00
2023-04-28T10:53:48.313Z,100935.00
2023-04-28T10:56:21.384Z,100943.00
2023-04-28T10:58:52.551Z,100947.00
2023-04-28T11:01:22.682Z,100948.00
2023-04-28T11:04:00.463Z,100944.00
2023-04-28T11:06:39.873Z,100949.00
2023-04-28T11:09:13.931Z,100945.00
2023-04-28T11:12:05.999Z,100937.00
2023-04-28T11:14:34.944Z,100936.00
2023-04-28T11:17:03.849Z,100934.00
2023-04-28T11:19:36.797Z,100933.00
2023-04-28T11:22:11.442Z,100942.00
2023-04-28T11:24:38.454Z,100938.00
2023-04-28T11:27:05.530Z,100932.00
2023-04-28T11:29:36.445Z,100932.00
2023-04-28T11:32:04.903Z,100940.00
2023-04-28T11:34:32.649Z,100933.00
2023-04-28T11:37:00.129Z,100932.00
2023-04-28T11:39:29.190Z,100928.00
2023-04-28T11:41:57.142Z,100933.00
2023-04-28T11:44:27.434Z,100940.00
2023-04-28T11:47:03.141Z,100939.00
2023-04-28T11:49:51.961Z,100933.00
2023-04-28T11:52:20.525Z,100941.00
2023-04-28T11:54:53.568Z,100940.00
2023-04-28T11:57:21.490Z,100947.00
2023-04-28T11:59:49.715Z,100943.00
2023-04-28T12:02:25.506Z,100941.00
2023-04-28T12:04:52.910Z,100942.00
2023-04-28T12:07:20.156Z,100942.00
2023-04-28T12:10:08.475Z,100937.00
2023-04-28T12:12:49.089Z,100942.00
2023-04-28T12:15:18.837Z,100939.00
2023-04-28T12:17:47.128Z,100938.00
2023-04-28T12:20:36.918Z,100930.00
2023-04-28T12:23:04.237Z,100932.00
2023-04-28T12:25:31.332Z,100925.00
2023-04-28T12:28:07.332Z,100926.00
2023-04-28T12:30:36.135Z,100933.00
2023-04-28T12:33:03.082Z,100929.00
2023-04-28T12:35:30.222Z,100919.00
2023-04-28T12:37:58.550Z,100923.00
2023-04-28T12:40:26.058Z,100922.00
2023-04-28T12:42:54.144Z,100919.00
2023-04-28T12:45:21.173Z,100918.00
2023-04-28T12:47:48.417Z,100914.00
2023-04-28T12:50:15.621Z,100908.00
2023-04-28T12:52:42.703Z,100909.00
2023-04-28T12:55:09.889Z,100910.00
2023-04-28T12:57:39.238Z,100916.00
2023-04-28T13:00:07.604Z,100910.00
2023-04-28T13:02:35.102Z,100902.00
2023-04-28T13:05:02.912Z,100914.00
2023-04-28T13:07:30.283Z,100907.00
2023-04-28T13:09:58.007Z,100906.00
2023-04-28T13:12:24.973Z,100908.00
2023-04-28T13:14:51.991Z,100902.00
2023-04-28T13:17:19.026Z,100889.00
2023-04-28T13:19:46.398Z,100902.00
2023-04-28T13:22:13.558Z,100889.00
2023-04-28T13:24:40.619Z,100898.00
2023-04-28T13:27:10.370Z,100894.00
2023-04-28T13:29:37.693Z,100895.00
2023-04-28T13:32:05.763Z,100890.00
2023-04-28T13:34:33.141Z,100888.00
2023-04-28T13:37:00.167Z,100895.00
2023-04-28T13:39:27.188Z,100892.00
2023-04-28T13:41:54.193Z,100881.00
2023-04-28T13:44:21.396Z,100889.00
2023-04-28T13:46:48.464Z,100888.00
2023-04-28T13:49:15.778Z,100885.00
2023-04-28T13:51:42.828Z,100881.00
2023-04-28T13:54:11.410Z,100888.00
2023-04-28T13:56:38.678Z,100888.00
2023-04-28T13:59:05.627Z,100893.00
2023-04-28T14:01:32.631Z,100887.00
2023-04-28T14:03:59.798Z,100895.00
2023-04-28T14:06:27.339Z,100892.00
2023-04-28T14:08:54.454Z,100895.00
2023-04-28T14:11:21.579Z,100886.00
2023-04-28T14:13:48.523Z,100889.00
2023-04-28T14:16:15.466Z,100892.00
2023-04-28T14:18:42.452Z,100893.00
2023-04-28T14:21:09.427Z,100889.00
2023-04-28T14:23:36.610Z,100893.00
2023-04-28T14:26:03.592Z,100895.00
2023-04-28T14:28:30.748Z,100888.00
2023-04-28T14:30:57.720Z,100902.00
2023-04-28T14:33:24.764Z,100898.00
2023-04-28T14:35:51.750Z,100895.00
2023-04-28T14:38:18.825Z,100892.00
2023-04-28T14:40:45.944Z,100900.00
2023-04-28T14:43:14.033Z,100893.00
2023-04-28T14:45:41.417Z,100900.00
2023-04-28T14:48:10.460Z,100908.00
2023-04-28T14:50:37.691Z,100898.00
2023-04-28T14:53:07.774Z,100899.00
2023-04-28T14:55:34.985Z,100906.00
2023-04-28T14:58:02.805Z,100893.00
2023-04-28T15:00:30.707Z,100903.00
2023-04-28T15:02:58.043Z,100900.00
2023-04-28T15:05:25.109Z,100898.00
2023-04-28T15:07:52.539Z,100892.00
2023-04-28T15:10:19.511Z,100898.00
2023-04-28T15:12:48.504Z,100902.00
2023-04-28T15:15:15.474Z,100898.00
2023-04-28T15:17:43.659Z,100906.00
2023-04-28T15:20:11.160Z,100908.00
2023-04-28T15:22:38.098Z,100909.00
2023-04-28T15:25:05.861Z,100920.00
2023-04-28T15:27:32.893Z,100923.00
2023-04-28T15:29:59.884Z,100913.00
2023-04-28T15:32:29.058Z,100923.00
2023-04-28T15:34:57.300Z,100925.00
2023-04-28T15:37:43.008Z,100930.00
2023-04-28T15:40:12.094Z,100936.00
2023-04-28T15:42:41.989Z,100932.00
2023-04-28T15:45:13.229Z,100934.00
2023-04-28T15:47:40.591Z,100925.00
2023-04-28T15:50:09.387Z,100924.00
2023-04-28T15:52:46.267Z,100934.00
2023-04-28T15:55:14.426Z,100933.00
2023-04-28T15:57:41.815Z,100936.00
2023-04-28T16:00:10.226Z,100938.00
2023-04-28T16:02:38.245Z,100936.00
2023-04-28T16:05:05.637Z,100937.00
2023-04-28T16:07:38.076Z,100943.00
2023-04-28T16:10:07.731Z,100937.00
2023-04-28T16:12:36.230Z,100939.00
2023-04-28T16:15:04.004Z,100938.00
2023-04-28T16:17:31.164Z,100935.00
2023-04-28T16:19:58.188Z,100938.00
2023-04-28T16:22:25.693Z,100946.00
2023-04-28T16:24:53.369Z,100943.00
2023-04-28T16:27:20.457Z,100947.00
2023-04-28T16:29:47.421Z,100952.00
2023-04-28T16:32:14.809Z,100950.00
2023-04-28T16:34:41.957Z,100947.00
2023-04-28T16:37:09.534Z,100951.00
2023-04-28T16:39:36.578Z,100946.00
2023-04-28T16:42:03.787Z,100949.00
2023-04-28T16:44:31.131Z,100955.00
2023-04-28T16:46:59.061Z,100970.00
2023-04-28T16:49:26.097Z,100961.00
2023-04-28T16:52:13.228Z,100964.00
2023-04-28T16:54:40.333Z,100967.00
2023-04-28T16:57:07.763Z,100965.00
2023-04-28T16:59:35.260Z,100961.00
2023-04-28T17:02:04.224Z,100966.00
2023-04-28T17:04:31.649Z,100968.00
2023-04-28T17:06:59.527Z,100973.00
2023-04-28T17:09:27.660Z,100972.00
2023-04-28T17:11:55.048Z,100968.00
2023-04-28T17:14:22.284Z,100985.00
2023-04-28T17:16:49.450Z,100967.00
2023-04-28T17:19:16.907Z,100973.00
2023-04-28T17:21:43.972Z,100976.00
2023-04-28T17:24:13.714Z,100967.00
2023-04-28T17:26:41.559Z,100980.00
2023-04-28T17:29:08.790Z,100978.00
2023-04-28T17:31:39.176Z,100974.00
2023-04-28T17:34:08.878Z,100982.00
2023-04-28T17:36:36.052Z,100988.00
2023-04-28T17:39:06.165Z,100986.00
2023-04-28T17:41:36.526Z,100984.00
2023-04-28T17:44:03.498Z,100988.00
2023-04-28T17:46:33.582Z,100985.00
2023-04-28T17:49:00.828Z,100994.00
2023-04-28T17:51:28.004Z,101001.00
2023-04-28T17:53:56.769Z,100994.00
2023-04-28T17:56:23.942Z,100992.00
2023-04-28T17:58:51.694Z,100993.00
2023-04-28T18:01:18.919Z,100989.00
2023-04-28T18:03:46.349Z,100994.00
2023-04-28T18:06:22.475Z,100994.00
2023-04-28T18:08:49.969Z,101002.00
2023-04-28T18:11:20.052Z,100998.00
2023-04-28T18:13:47.513Z,100998.00
2023-04-28T18:16:15.171Z,100997.00
2023-04-28T18:18:45.148Z,100999.00
2023-04-28T18:21:12.157Z,101001.00
2023-04-28T18:23:39.594Z,101001.00
2023-04-28T18:26:09.493Z,101017.00
2023-04-28T18:28:36.568Z,101007.00
2023-04-28T18:31:05.220Z,101015.00
2023-04-28T18:33:37.234Z,101006.00
2023-04-28T18:36:10.276Z,101007.00
2023-04-28T18:38:37.361Z,101010.00
2023-04-28T18:41:18.073Z,101011.00
2023-04-28T18:43:45.211Z,101016.00
2023-04-28T18:46:12.391Z,101012.00
2023-04-28T18:48:43.328Z,101011.00
2023-04-28T18:51:10.460Z,101013.00
2023-04-28T18:53:37.544Z,101017.00
2023-04-28T18:56:04.851Z,101006.00
2023-04-28T18:58:32.284Z,101020.00
2023-04-28T19:01:02.019Z,101016.00
2023-04-28T19:03:30.383Z,101025.00
2023-04-28T19:05:57.651Z,101022.00
2023-04-28T19:08:24.713Z,101024.00
2023-04-28T19:10:51.853Z,101038.00
2023-04-28T19:13:18.947Z,101035.00
2023-04-28T19:15:47.343Z,101041.00
2023-04-28T19:18:21.571Z,101040.00
2023-04-28T19:20:50.638Z,101046.00
2023-04-28T19:23:17.852Z,101058.00
2023-04-28T19:25:45.009Z,101057.00
2023-04-28T19:28:12.167Z,101051.00
2023-04-28T19:30:39.323Z,101063.00
2023-04-28T19:33:09.085Z,101066.00
2023-04-28T19:35:36.194Z,101068.00
2023-04-28T19:38:03.308Z,101075.00
2023-04-28T19:40:30.656Z,101077.00
2023-04-28T19:42:57.856Z,101086.00
2023-04-28T19:45:24.930Z,101086.00
2023-04-28T19:47:52.913Z,101085.00
2023-04-28T19:50:20.056Z,101090.00
2023-04-28T19:52:47.066Z,101091.00
2023-04-28T19:55:18.372Z,101094.00
2023-04-28T19:57:45.764Z,101109.00
2023-04-28T20:00:13.427Z,101108.00
2023-04-28T20:02:40.663Z,101106.00
2023-04-28T20:05:10.413Z,101108.00
2023-04-28T20:07:41.380Z,101108.00
2023-04-28T20:10:12.101Z,101107.00
2023-04-28T20:12:39.775Z,101109.00
2023-04-28T20:15:08.622Z,101108.00
2023-04-28T20:17:35.820Z,101112.00
2023-04-28T20:20:05.566Z,101108.00
2023-04-28T20:22:32.731Z,101119.00
2023-04-28T20:25:03.486Z,101121.00
2023-04-28T20:27:30.530Z,101119.00
2023-04-28T20:30:00.552Z,101116.00
2023-04-28T20:32:27.752Z,101124.00
2023-04-28T20:34:54.842Z,101126.00
2023-04-28T20:37:23.556Z,101136.00
2023-04-28T20:39:50.878Z,101142.00
2023-04-28T20:42:18.215Z,101143.00
2023-04-28T20:44:46.503Z,101143.00
2023-04-28T20:47:13.973Z,101155.00
2023-04-28T20:49:42.178Z,101151.00
2023-04-28T20:52:09.162Z,101151.00
2023-04-28T20:54:36.405Z,101157.00
2023-04-28T20:57:04.798Z,101158.00
2023-04-28T20:59:48.317Z,101167.00
2023-04-28T21:02:15.493Z,101161.00
2023-04-28T21:04:42.541Z,101164.00
2023-04-28T21:07:09.536Z,101165.00
2023-04-28T21:09:37.447Z,101174.00
2023-04-28T21:12:04.680Z,101172.00
2023-04-28T21:14:36.463Z,101179.00
2023-04-28T21:17:03.778Z,101184.00
2023-04-28T21:19:31.007Z,101188.00
2023-04-28T21:21:58.545Z,101183.00
2023-04-28T21:24:25.614Z,101210.00
2023-04-28T21:26:52.888Z,101199.00
2023-04-28T21:29:19.887Z,101205.00
2023-04-28T21:31:47.576Z,101209.00
2023-04-28T21:34:14.608Z,101205.00
2023-04-28T21:36:42.010Z,101201.00
2023-04-28T21:39:09.034Z,101203.00
2023-04-28T21:41:36.005Z,101197.00
2023-04-28T21:44:03.185Z,101199.00
2023-04-28T21:46:30.260Z,101202.00
2023-04-28T21:48:57.248Z,101202.00
2023-04-28T21:51:24.275Z,101200.00
2023-04-28T21:53:51.289Z,101203.00
2023-04-28T21:56:18.338Z,101199.00
2023-04-28T21:58:45.448Z,101198.00
2023-04-28T22:01:16.961Z,101208.00
2023-04-28T22:03:45.506Z,101205.00
2023-04-28T22:06:13.052Z,101207.00
2023-04-28T22:08:40.035Z,101213.00
2023-04-28T22:11:07.225Z,101207.00
2023-04-28T22:13:34.258Z,101207.00
2023-04-28T22:16:02.008Z,101211.00
2023-04-28T22:18:29.210Z,101214.00
2023-04-28T22:20:56.378Z,101219.00
2023-04-28T22:23:23.394Z,101222.00
2023-04-28T22:25:50.393Z,101225.00
2023-04-28T22:28:17.849Z,101222.00
2023-04-28T22:30:46.722Z,101239.00
2023-04-28T22:33:13.824Z,101237.00
2023-04-28T22:35:40.826Z,101235.00
2023-04-28T22:38:07.934Z,101234.00
2023-04-28T22:40:34.926Z,101242.00
2023-04-28T22:43:01.872Z,101243.00
2023-04-28T22:45:28.828Z,101244.00
2023-04-28T22:47:56.759Z,101245.00
2023-04-28T22:50:23.724Z,101245.00
2023-04-28T22:52:51.466Z,101245.00
2023-04-28T22:55:19.389Z,101244.00
2023-04-28T22:57:46.365Z,101246.00
2023-04-28T23:00:15.996Z,101239.00
2023-04-28T23:02:43.124Z,101245.00
2023-04-28T23:05:10.562Z,101246.00
2023-04-28T23:07:37.546Z,101244.00
2023-04-28T23:10:05.133Z,101252.00
2023-04-28T23:12:32.164Z,101249.00
2023-04-28T23:14:59.421Z,101249.00
2023-04-28T23:17:26.367Z,101249.00
2023-04-28T23:19:53.376Z,101250.00
2023-04-28T23:22:20.769Z,101262.00
2023-04-28T23:24:47.731Z,101260.00
2023-04-28T23:27:14.667Z,101266.00
2023-04-28T23:29:41.651Z,101265.00
2023-04-28T23:32:08.787Z,101274.00
2023-04-28T23:34:38.184Z,101268.00
2023-04-28T23:37:05.598Z,101271.00
2023-04-28T23:39:32.734Z,101273.00
2023-04-28T23:41:59.871Z,101279.00
2023-04-28T23:44:26.819Z,101280.00
2023-04-28T23:46:55.975Z,101277.00
2023-04-28T23:49:23.818Z,101279.00
2023-04-28T23:51:50.791Z,101279.00
2023-04-28T23:54:17.978Z,101286.00
2023-04-28T23:56:44.909Z,101279.00
2023-04-28T23:59:11.884Z,101289.00
